Time;durP1;ratioP1;P1;durP2;ratioP2;P2;SDS_P1;SDS_P2;PMS_P1;PMS_P2;Temp;Humidity;BMP_temperature;BMP_pressure;BME280_temperature;BME280_humidity;BME280_pressure;Samples;Min_cycle;Max_cycle;Signal;HPM_P1;HPM_P2
2023/12/12 00:00:46;;;;;;;49.25;33.40;;;;;;;4.88;68.81;99359.66;4471069;32;34466;-79
2023/12/12 00:03:15;;;;;;;53.33;35.10;;;;;;;4.94;68.45;99359.28;4470907;32;34160;-79
2023/12/12 00:05:44;;;;;;;50.22;34.58;;;;;;;4.73;69.12;99360.47;4470722;32;35076;-79
2023/12/12 00:08:13;;;;;;;51.00;31.15;;;;;;;4.99;68.30;99357.28;4471643;32;34293;-79
2023/12/12 00:10:43;;;;;;;49.97;31.50;;;;;;;4.73;69.16;99352.59;4470338;32;34547;-79
2023/12/12 00:13:12;;;;;;;44.35;32.25;;;;;;;4.76;69.20;99357.69;4470951;32;34025;-79
2023/12/12 00:15:40;;;;;;;48.08;32.13;;;;;;;4.67;69.46;99367.75;4470688;32;34123;-79
2023/12/12 00:18:12;;;;;;;41.63;30.88;;;;;;;4.88;69.18;99371.00;4471242;32;33650;-79
2023/12/12 00:20:41;;;;;;;45.08;31.62;;;;;;;4.83;68.88;99377.41;4471408;32;34731;-79
2023/12/12 00:23:10;;;;;;;49.45;31.12;;;;;;;4.82;68.88;99380.97;4472020;32;34062;-79
2023/12/12 00:25:39;;;;;;;49.67;31.23;;;;;;;4.69;69.32;99381.63;4471083;32;34044;-79
2023/12/12 00:28:08;;;;;;;44.97;32.75;;;;;;;4.70;69.35;99387.72;4471049;32;33599;-79
2023/12/12 00:30:38;;;;;;;47.30;32.28;;;;;;;4.71;69.30;99389.41;4470838;32;34040;-79
2023/12/12 00:33:12;;;;;;;53.97;32.33;;;;;;;4.63;69.52;99397.72;4470738;32;34259;-79
2023/12/12 00:35:41;;;;;;;49.58;32.55;;;;;;;4.67;69.48;99390.50;4456425;32;32667;-79
2023/12/12 00:38:10;;;;;;;49.10;33.17;;;;;;;4.82;69.00;99387.06;4471410;32;33731;-79
2023/12/12 00:40:40;;;;;;;50.88;33.47;;;;;;;4.92;68.47;99384.81;4470858;32;34753;-79
2023/12/12 00:43:10;;;;;;;46.08;33.97;;;;;;;4.82;68.85;99380.97;4470978;32;33598;-79
2023/12/12 00:45:39;;;;;;;50.90;32.05;;;;;;;5.10;67.89;99369.78;4470548;32;34590;-79
2023/12/12 00:48:08;;;;;;;41.42;31.37;;;;;;;5.18;67.37;99381.56;4470958;32;33551;-79
2023/12/12 00:50:39;;;;;;;45.80;31.08;;;;;;;5.08;67.35;99380.41;4471280;32;34687;-79
2023/12/12 00:53:09;;;;;;;42.72;30.88;;;;;;;4.95;67.35;99379.38;4471773;32;34113;-79
2023/12/12 00:55:38;;;;;;;42.10;31.08;;;;;;;5.12;66.44;99378.44;4470991;32;34111;-79
2023/12/12 00:58:07;;;;;;;42.50;29.98;;;;;;;5.07;66.41;99380.50;4471243;32;33794;-79
2023/12/12 01:00:36;;;;;;;44.47;31.23;;;;;;;4.94;66.81;99381.13;4470426;32;34132;-79
2023/12/12 01:03:05;;;;;;;45.88;33.50;;;;;;;4.79;67.07;99379.38;4471002;32;34054;-79
2023/12/12 01:05:35;;;;;;;47.38;30.42;;;;;;;4.32;68.71;99384.50;4470524;32;34609;-78
2023/12/12 01:08:05;;;;;;;43.70;31.27;;;;;;;4.59;67.92;99390.06;4470984;32;33776;-79
2023/12/12 01:10:34;;;;;;;48.03;33.25;;;;;;;4.61;68.09;99393.47;4471016;32;34219;-79
2023/12/12 01:13:04;;;;;;;44.92;32.95;;;;;;;4.49;68.60;99387.09;4456271;32;35091;-79
2023/12/12 01:15:33;;;;;;;44.72;30.62;;;;;;;4.60;68.47;99382.13;4456145;32;34274;-79
2023/12/12 01:18:03;;;;;;;53.63;33.65;;;;;;;4.57;68.95;99382.28;4470913;32;33744;-79
2023/12/12 01:20:32;;;;;;;47.83;33.03;;;;;;;4.31;70.14;99395.91;4470425;32;34618;-79
2023/12/12 01:23:02;;;;;;;48.25;33.35;;;;;;;4.14;71.17;99383.66;4456716;32;33511;-79
2023/12/12 01:25:33;;;;;;;47.33;32.13;;;;;;;4.17;71.47;99389.59;4470028;32;34304;-79
2023/12/12 01:28:02;;;;;;;48.85;34.88;;;;;;;4.42;70.82;99396.19;4471884;32;34089;-79
2023/12/12 01:30:32;;;;;;;45.47;33.22;;;;;;;4.44;70.83;99389.09;4473108;32;35463;-79
2023/12/12 01:33:04;;;;;;;51.83;35.47;;;;;;;4.38;70.95;99394.66;4471677;32;34190;-79
2023/12/12 01:35:33;;;;;;;50.05;34.35;;;;;;;4.50;70.98;99393.16;4470184;32;34039;-79
2023/12/12 01:38:03;;;;;;;48.35;33.30;;;;;;;4.58;70.82;99391.00;4470691;32;33420;-79
2023/12/12 01:40:33;;;;;;;49.78;33.90;;;;;;;4.72;70.47;99390.28;4470299;32;34492;-79
2023/12/12 01:43:06;;;;;;;44.78;32.10;;;;;;;4.68;70.58;99377.31;4470356;32;33822;-79
2023/12/12 01:45:35;;;;;;;49.92;31.33;;;;;;;4.82;70.15;99371.31;4469942;32;34586;-79
2023/12/12 01:48:05;;;;;;;43.85;32.38;;;;;;;4.81;70.14;99371.41;4470274;32;33707;-79
2023/12/12 01:50:34;;;;;;;47.70;32.17;;;;;;;4.46;70.27;99386.38;4473158;32;33974;-79
2023/12/12 01:53:04;;;;;;;45.17;32.05;;;;;;;4.75;69.89;99376.97;4470456;32;33793;-79
2023/12/12 01:55:37;;;;;;;44.92;31.77;;;;;;;4.58;70.30;99378.72;4469926;32;35660;-79
2023/12/12 01:58:07;;;;;;;47.15;33.45;;;;;;;4.78;69.75;99374.19;4470422;32;33562;-79
2023/12/12 02:00:37;;;;;;;46.15;32.72;;;;;;;4.43;70.54;99379.53;4472857;32;33832;-79
2023/12/12 02:03:07;;;;;;;47.45;32.78;;;;;;;4.76;69.53;99373.44;4472834;32;35231;-79
2023/12/12 02:05:41;;;;;;;47.00;32.53;;;;;;;4.56;70.16;99375.34;4473256;32;33914;-79
2023/12/12 02:08:10;;;;;;;48.83;32.95;;;;;;;4.55;70.16;99388.53;4471569;32;34283;-79
2023/12/12 02:10:40;;;;;;;49.78;34.15;;;;;;;4.71;69.95;99384.16;4470333;32;34430;-79
2023/12/12 02:13:11;;;;;;;49.22;32.90;;;;;;;4.54;70.27;99379.81;4469716;32;34218;-79
2023/12/12 02:15:40;;;;;;;48.15;33.13;;;;;;;4.55;70.35;99381.50;4469729;32;34044;-79
2023/12/12 02:18:09;;;;;;;44.15;30.55;;;;;;;4.78;69.61;99376.81;4469567;32;33647;-79
2023/12/12 02:20:38;;;;;;;49.13;32.28;;;;;;;4.85;69.41;99371.16;4463582;32;33902;-79
2023/12/12 02:23:10;;;;;;;42.30;30.88;;;;;;;4.84;69.65;99374.72;4469756;32;34632;-79
2023/12/12 02:25:39;;;;;;;44.55;31.12;;;;;;;4.79;69.50;99373.25;4455175;32;33289;-79
2023/12/12 02:28:08;;;;;;;41.75;31.87;;;;;;;4.65;70.11;99366.97;4469357;32;33610;-79
2023/12/12 02:30:39;;;;;;;41.33;29.83;;;;;;;4.74;69.86;99368.25;4469707;32;33866;-79
2023/12/12 02:33:08;;;;;;;45.33;31.67;;;;;;;4.88;69.58;99371.00;4470531;32;33964;-79
2023/12/12 02:35:37;;;;;;;42.58;30.20;;;;;;;4.74;69.74;99367.41;4471718;32;34245;-78
2023/12/12 02:38:06;;;;;;;43.25;30.85;;;;;;;4.68;69.88;99368.59;4472014;32;33638;-79
2023/12/12 02:40:37;;;;;;;45.38;30.90;;;;;;;4.70;69.49;99371.97;4471649;32;33665;-79
2023/12/12 02:43:06;;;;;;;50.70;35.58;;;;;;;4.81;69.08;99380.12;4471518;32;34183;-79
2023/12/12 02:45:36;;;;;;;44.85;30.62;;;;;;;4.42;70.50;99370.81;4471219;32;34096;-79
2023/12/12 02:48:07;;;;;;;48.55;33.10;;;;;;;4.65;70.06;99368.75;4457255;32;34785;-79
2023/12/12 02:50:36;;;;;;;38.58;30.05;;;;;;;4.91;69.05;99373.44;4465247;32;34262;-80
2023/12/12 02:53:05;;;;;;;43.42;30.37;;;;;;;5.04;68.42;99375.41;4471738;32;34057;-79
2023/12/12 02:55:34;;;;;;;46.28;29.67;;;;;;;4.31;71.04;99367.03;4471376;32;34122;-79
2023/12/12 02:58:05;;;;;;;39.45;30.27;;;;;;;4.42;71.22;99369.97;4471682;32;33461;-79
2023/12/12 03:00:34;;;;;;;43.87;31.05;;;;;;;4.83;69.94;99373.03;4471598;32;34191;-79
2023/12/12 03:03:04;;;;;;;37.63;28.92;;;;;;;4.85;69.96;99378.19;4471766;32;34017;-79
2023/12/12 03:05:33;;;;;;;42.58;27.70;;;;;;;5.11;69.76;99389.91;4471775;32;34310;-79
2023/12/12 03:08:03;;;;;;;43.90;30.75;;;;;;;4.91;70.59;99386.59;4472218;32;33706;-79
2023/12/12 03:10:32;;;;;;;38.08;26.98;;;;;;;5.00;70.54;99389.63;4471838;32;34073;-79
2023/12/12 03:13:02;;;;;;;38.15;27.35;;;;;;;5.26;69.68;99390.81;4471662;32;34775;-79
2023/12/12 03:15:32;;;;;;;40.67;29.15;;;;;;;5.31;69.20;99396.69;4471467;32;33758;-79
2023/12/12 03:18:01;;;;;;;38.13;26.73;;;;;;;4.97;70.36;99389.78;4471956;32;34280;-79
2023/12/12 03:20:30;;;;;;;37.42;26.23;;;;;;;4.85;70.92;99394.78;4471626;32;34072;-78
2023/12/12 03:23:00;;;;;;;39.50;26.45;;;;;;;4.94;70.45;99396.88;4471848;32;34851;-78
2023/12/12 03:25:29;;;;;;;36.20;26.45;;;;;;;4.86;70.53;99400.88;4471444;32;34086;-79
2023/12/12 03:27:57;;;;;;;34.47;25.52;;;;;;;4.86;70.35;99401.72;4471544;32;34364;-79
2023/12/12 03:30:26;;;;;;;35.00;23.90;;;;;;;4.98;70.03;99396.72;4471743;32;34901;-79
2023/12/12 03:32:58;;;;;;;39.38;25.73;;;;;;;5.02;69.47;99412.22;4471901;32;34996;-79
2023/12/12 03:35:27;;;;;;;36.22;26.08;;;;;;;4.87;69.61;99411.31;4471172;32;34996;-78
2023/12/12 03:37:57;;;;;;;34.75;25.85;;;;;;;4.79;69.93;99415.25;4471438;32;33698;-79
2023/12/12 03:40:26;;;;;;;38.97;26.87;;;;;;;4.93;69.44;99418.00;4471200;32;34749;-79
2023/12/12 03:42:55;;;;;;;36.55;27.60;;;;;;;4.87;69.42;99424.44;4471145;32;34171;-79
2023/12/12 03:45:24;;;;;;;37.45;25.67;;;;;;;5.11;68.88;99424.03;4470110;32;34347;-79
2023/12/12 03:47:53;;;;;;;32.72;25.25;;;;;;;4.98;69.40;99415.09;4471134;32;34196;-79
2023/12/12 03:50:25;;;;;;;33.63;25.83;;;;;;;5.07;69.33;99420.72;4470956;32;33922;-78
2023/12/12 03:52:54;;;;;;;34.53;25.75;;;;;;;4.92;69.52;99424.19;4471330;32;35092;-79
2023/12/12 03:55:24;;;;;;;35.05;27.30;;;;;;;4.97;69.40;99424.78;4470899;32;34673;-79
2023/12/12 03:57:53;;;;;;;39.25;27.80;;;;;;;5.03;69.12;99418.31;4470974;32;33732;-79
2023/12/12 04:00:22;;;;;;;41.30;26.25;;;;;;;4.93;69.52;99431.13;4471017;32;34284;-79
2023/12/12 04:02:52;;;;;;;40.33;27.75;;;;;;;4.97;69.54;99421.28;4470947;32;34736;-79
2023/12/12 04:05:20;;;;;;;36.92;27.27;;;;;;;5.01;69.41;99428.91;4470699;32;33874;-78
2023/12/12 04:07:50;;;;;;;38.63;27.60;;;;;;;5.04;69.31;99430.53;4471285;32;34216;-79
2023/12/12 04:10:20;;;;;;;32.45;25.98;;;;;;;4.96;69.45;99427.50;4470959;32;33855;-79
2023/12/12 04:12:49;;;;;;;30.90;24.00;;;;;;;4.97;69.31;99424.78;4470963;32;33927;-79
2023/12/12 04:15:18;;;;;;;39.00;29.25;;;;;;;5.09;69.01;99433.75;4470680;32;34785;-79
2023/12/12 04:17:48;;;;;;;33.42;26.60;;;;;;;4.96;68.92;99430.97;4470875;32;33696;-78
2023/12/12 04:20:16;;;;;;;36.28;26.92;;;;;;;5.01;68.95;99426.28;4471216;32;34474;-79
2023/12/12 04:22:45;;;;;;;36.47;28.25;;;;;;;5.08;68.55;99419.78;4470764;32;49335;-79
2023/12/12 04:25:16;;;;;;;36.75;27.67;;;;;;;4.96;68.91;99424.88;4470524;32;34171;-79
2023/12/12 04:27:45;;;;;;;37.42;28.33;;;;;;;5.15;68.13;99429.03;4470962;32;34042;-79
2023/12/12 04:30:15;;;;;;;35.22;26.70;;;;;;;5.00;68.66;99429.84;4470925;32;34285;-79
2023/12/12 04:32:43;;;;;;;35.22;26.52;;;;;;;4.80;69.24;99433.56;4470946;32;34270;-79
2023/12/12 04:35:14;;;;;;;34.28;27.45;;;;;;;4.65;70.05;99437.81;4471067;32;34064;-79
2023/12/12 04:37:43;;;;;;;32.60;27.47;;;;;;;5.03;68.44;99441.94;4470579;32;33647;-79
2023/12/12 04:40:13;;;;;;;35.65;25.95;;;;;;;5.02;68.49;99442.91;4470726;32;34695;-79
2023/12/12 04:42:44;;;;;;;33.25;26.27;;;;;;;4.95;68.96;99442.41;4470697;32;33974;-79
2023/12/12 04:45:14;;;;;;;43.10;30.37;;;;;;;5.11;68.65;99439.78;4470321;32;33820;-79
2023/12/12 04:47:43;;;;;;;38.03;29.67;;;;;;;5.23;68.44;99435.66;4470544;32;33449;-79
2023/12/12 04:50:16;;;;;;;41.40;28.50;;;;;;;4.80;70.08;99436.19;4456599;32;32529;-79
2023/12/12 04:52:46;;;;;;;49.22;30.05;;;;;;;5.03;69.32;99431.44;4470365;32;50221;-79
2023/12/12 04:55:15;;;;;;;38.28;27.87;;;;;;;5.00;69.78;99427.22;4470223;32;34093;-79
2023/12/12 04:57:46;;;;;;;33.47;27.25;;;;;;;4.77;70.51;99414.50;4470776;32;34740;-79
2023/12/12 05:00:16;;;;;;;40.38;27.48;;;;;;;4.97;70.12;99423.94;4470726;32;34123;-79
2023/12/12 05:02:45;;;;;;;43.90;28.10;;;;;;;4.71;70.43;99447.13;4470297;32;34257;-79
2023/12/12 05:05:14;;;;;;;36.90;28.45;;;;;;;4.72;70.66;99440.12;4470862;32;34071;-79
2023/12/12 05:07:44;;;;;;;51.42;31.40;;;;;;;4.80;70.38;99449.31;4470799;32;34250;-79
2023/12/12 05:10:16;;;;;;;;;;;;;;;4.86;70.10;99450.75;4470752;32;34040;-79
2023/12/12 05:12:47;;;;;;;55.10;34.75;;;;;;;4.85;69.85;99449.06;4470808;32;34419;-79
2023/12/12 05:15:16;;;;;;;48.00;34.53;;;;;;;4.72;70.29;99440.12;4470262;32;33989;-79
2023/12/12 05:17:45;;;;;;;49.03;35.88;;;;;;;4.84;70.05;99442.13;4456281;32;32598;-79
2023/12/12 05:20:15;;;;;;;50.95;37.28;;;;;;;4.80;70.05;99457.19;4470921;32;34008;-79
2023/12/12 05:22:44;;;;;;;49.47;35.78;;;;;;;4.94;69.39;99456.44;4470038;32;47996;-79
2023/12/12 05:25:13;;;;;;;48.72;34.03;;;;;;;5.27;68.09;99445.91;4470205;32;34679;-79
2023/12/12 05:27:42;;;;;;;38.50;31.20;;;;;;;5.26;67.97;99451.22;4470502;32;34465;-79
2023/12/12 05:30:13;;;;;;;42.08;31.35;;;;;;;4.91;68.68;99451.38;4470220;32;34773;-79
2023/12/12 05:32:42;;;;;;;41.67;29.35;;;;;;;4.71;69.45;99454.16;4470467;32;34034;-78
2023/12/12 05:35:12;;;;;;;39.20;29.37;;;;;;;5.02;68.66;99458.66;4471401;32;34083;-79
2023/12/12 05:37:41;;;;;;;39.85;30.25;;;;;;;4.93;68.72;99455.59;4471352;32;34270;-80
2023/12/12 05:40:14;;;;;;;38.63;28.87;;;;;;;4.87;69.09;99463.81;4470761;32;33758;-79
2023/12/12 05:42:43;;;;;;;39.03;27.25;;;;;;;4.89;69.09;99468.97;4470598;32;34259;-79
2023/12/12 05:45:14;;;;;;;34.25;25.37;;;;;;;4.85;69.16;99464.81;4471027;32;34304;-79
2023/12/12 05:47:43;;;;;;;38.45;26.48;;;;;;;5.02;68.84;99467.37;4470477;32;33645;-79
2023/12/12 05:50:13;;;;;;;33.72;24.27;;;;;;;4.93;69.17;99460.84;4470343;32;33892;-79
2023/12/12 05:52:43;;;;;;;29.23;22.48;;;;;;;5.16;68.59;99469.28;4470110;32;33883;-79
2023/12/12 05:55:11;;;;;;;27.40;22.50;;;;;;;5.09;69.21;99474.00;4469976;32;34388;-79
2023/12/12 05:57:40;;;;;;;27.60;22.00;;;;;;;5.02;69.64;99477.03;4470658;32;34129;-80
2023/12/12 06:00:11;;;;;;;29.65;21.20;;;;;;;5.20;69.51;99480.47;4470688;32;33874;-79
2023/12/12 06:02:42;;;;;;;26.70;19.85;;;;;;;5.05;70.06;99487.38;4470756;32;34000;-79
2023/12/12 06:05:11;;;;;;;32.72;23.92;;;;;;;4.95;70.71;99487.03;4470366;32;34127;-79
2023/12/12 06:07:42;;;;;;;26.42;22.45;;;;;;;4.93;70.74;99479.22;4470621;32;33791;-80
2023/12/12 06:10:11;;;;;;;24.60;20.33;;;;;;;4.90;71.23;99484.63;4472783;32;34743;-80
2023/12/12 06:12:40;;;;;;;28.38;18.90;;;;;;;5.28;70.22;99478.28;4473096;32;34197;-79
2023/12/12 06:15:10;;;;;;;23.92;17.98;;;;;;;5.36;70.07;99484.78;4472739;32;33947;-80
2023/12/12 06:17:39;;;;;;;23.65;16.60;;;;;;;5.32;70.35;99499.03;4472992;32;33767;-79
2023/12/12 06:20:11;;;;;;;22.60;15.52;;;;;;;5.61;69.50;99502.69;4473369;32;34200;-79
2023/12/12 06:22:41;;;;;;;22.17;16.77;;;;;;;5.71;69.59;99504.81;4472406;32;34792;-79
2023/12/12 06:25:10;;;;;;;19.60;14.18;;;;;;;5.88;68.99;99504.72;4472200;32;34279;-79
2023/12/12 06:27:39;;;;;;;21.33;13.32;;;;;;;5.46;70.27;99508.78;4472419;32;33823;-79
2023/12/12 06:30:10;;;;;;;18.15;13.30;;;;;;;5.36;70.37;99511.06;4458575;32;33858;-79
2023/12/12 06:32:39;;;;;;;19.60;13.82;;;;;;;5.43;70.75;99508.97;4473161;32;34916;-79
2023/12/12 06:35:09;;;;;;;31.60;21.20;;;;;;;5.41;70.19;99516.06;4472784;32;33583;-79
2023/12/12 06:37:39;;;;;;;26.17;20.23;;;;;;;5.22;70.97;99515.34;4472902;32;33955;-79
2023/12/12 06:40:11;;;;;;;26.05;19.40;;;;;;;5.54;70.08;99511.00;4473476;32;34262;-79
2023/12/12 06:42:45;;;;;;;29.00;23.08;;;;;;;5.54;69.89;99514.47;4472387;32;34930;-79
2023/12/12 06:45:15;;;;;;;30.62;19.52;;;;;;;5.36;70.44;99518.09;4457896;32;34464;-79
2023/12/12 06:47:45;;;;;;;26.58;18.85;;;;;;;5.41;70.31;99510.81;4472615;32;34211;-79
2023/12/12 06:50:18;;;;;;;25.60;17.90;;;;;;;5.68;69.68;99518.97;4458163;32;33079;-80
2023/12/12 06:52:49;;;;;;;27.52;20.70;;;;;;;5.82;68.72;99520.81;4472150;32;49199;-79
2023/12/12 06:55:18;;;;;;;38.55;30.30;;;;;;;5.82;68.65;99531.34;4471817;32;33658;-79
2023/12/12 06:57:47;;;;;;;41.72;29.02;;;;;;;5.93;77.15;99529.00;4472023;32;33884;-79
2023/12/12 07:00:17;;;;;;;90.22;58.40;;;;;;;6.37;77.72;99523.84;4471574;32;34943;-79
2023/12/12 07:02:46;;;;;;;91.22;55.97;;;;;;;7.04;75.44;99531.31;4456981;32;33489;-79
2023/12/12 07:05:16;;;;;;;94.37;52.78;;;;;;;7.65;71.56;99527.53;4473103;32;34309;-79
2023/12/12 07:07:47;;;;;;;43.53;31.35;;;;;;;7.82;67.59;99521.19;4472304;32;49256;-79
2023/12/12 07:10:17;;;;;;;43.40;25.73;;;;;;;7.32;64.94;99526.03;4472334;32;34216;-79
2023/12/12 07:12:46;;;;;;;42.45;27.33;;;;;;;7.30;64.84;99529.72;4472321;32;34418;-79
2023/12/12 07:15:15;;;;;;;36.35;26.42;;;;;;;7.34;64.52;99534.72;4470406;32;33896;-78
2023/12/12 07:17:45;;;;;;;31.00;22.73;;;;;;;7.08;65.32;99538.09;4471364;32;33681;-79
2023/12/12 07:20:14;;;;;;;30.90;23.48;;;;;;;7.07;65.43;99539.88;4472064;32;34149;-79
2023/12/12 07:22:43;;;;;;;30.67;20.65;;;;;;;7.00;65.95;99542.97;4470365;32;33952;-78
2023/12/12 07:25:15;;;;;;;29.25;21.25;;;;;;;7.10;65.99;99538.84;4470841;32;34274;-79
2023/12/12 07:27:44;;;;;;;32.33;21.02;;;;;;;6.91;67.11;99539.09;4472695;32;33649;-79
2023/12/12 07:30:17;;;;;;;29.48;18.85;;;;;;;7.12;66.42;99534.31;4472915;32;33933;-80
2023/12/12 07:32:46;;;;;;;34.58;19.27;;;;;;;7.31;65.88;99539.31;4472763;32;34462;-79
2023/12/12 07:35:16;;;;;;;40.90;21.67;;;;;;;7.05;66.66;99539.13;4472112;32;34122;-79
2023/12/12 07:37:46;;;;;;;29.95;22.25;;;;;;;7.22;66.41;99543.37;4472483;32;48466;-79
2023/12/12 07:40:16;;;;;;;29.85;22.67;;;;;;;7.18;67.07;99539.22;4471946;32;34146;-80
2023/12/12 07:42:46;;;;;;;29.87;21.45;;;;;;;7.66;66.56;99547.69;4472130;32;34025;-79
2023/12/12 07:45:15;;;;;;;32.22;19.95;;;;;;;7.94;66.37;99549.41;4471874;32;34464;-79
2023/12/12 07:47:44;;;;;;;21.58;16.15;;;;;;;8.33;65.20;99537.22;4472053;32;34859;-79
2023/12/12 07:50:16;;;;;;;21.92;14.70;;;;;;;8.43;64.59;99553.31;4472628;32;34079;-79
2023/12/12 07:52:47;;;;;;;20.17;12.90;;;;;;;8.49;63.65;99552.94;4472119;32;49159;-79
2023/12/12 07:55:19;;;;;;;20.52;12.82;;;;;;;8.61;63.04;99557.38;4472014;32;34194;-80
2023/12/12 07:57:49;;;;;;;;;;;;;;;8.88;62.79;99559.13;4473309;32;35077;-79
2023/12/12 08:00:19;;;;;;;16.70;10.23;;;;;;;9.27;61.63;99553.75;4472743;32;34225;-81
2023/12/12 08:02:48;;;;;;;15.43;10.77;;;;;;;9.65;59.45;99555.50;4470429;32;33844;-78
2023/12/12 08:05:18;;;;;;;13.38;9.18;;;;;;;9.92;59.25;99557.13;4470837;32;33882;-78
2023/12/12 08:07:48;;;;;;;21.70;12.00;;;;;;;9.79;59.03;99559.81;4471206;32;50018;-79
2023/12/12 08:10:19;;;;;;;15.88;9.68;;;;;;;10.09;59.20;99560.25;4472329;32;34217;-80
2023/12/12 08:12:49;;;;;;;11.85;8.35;;;;;;;10.87;57.80;99547.50;4472678;32;34774;-80
2023/12/12 08:15:19;;;;;;;16.10;11.40;;;;;;;11.79;55.72;99549.94;4472071;32;34075;-80
2023/12/12 08:17:49;;;;;;;10.00;7.78;;;;;;;12.30;52.93;99536.09;4472450;32;33599;-79
2023/12/12 08:20:18;;;;;;;14.45;8.25;;;;;;;12.46;51.85;99538.34;4472673;32;34116;-79
2023/12/12 08:22:48;;;;;;;10.02;6.05;;;;;;;12.22;51.60;99535.06;4472267;32;49107;-79
2023/12/12 08:25:19;;;;;;;11.32;6.70;;;;;;;12.06;51.83;99544.28;4471869;32;34162;-80
2023/12/12 08:27:48;;;;;;;17.05;6.40;;;;;;;12.23;51.45;99548.19;4471859;32;33824;-79
2023/12/12 08:30:18;;;;;;;10.07;5.75;;;;;;;12.53;51.18;99552.81;4471373;32;34120;-80
2023/12/12 08:32:47;;;;;;;9.60;6.00;;;;;;;12.85;50.45;99557.25;4472288;32;34708;-80
2023/12/12 08:35:16;;;;;;;14.38;6.05;;;;;;;13.79;48.50;99547.44;4472038;32;34821;-80
2023/12/12 08:37:46;;;;;;;12.35;7.12;;;;;;;14.87;46.15;99539.41;4471364;32;49073;-79
2023/12/12 08:40:15;;;;;;;10.13;6.80;;;;;;;15.68;43.94;99536.28;4471820;32;34905;-80
2023/12/12 08:42:45;;;;;;;8.77;5.28;;;;;;;16.62;42.38;99528.72;4472014;32;34380;-80
2023/12/12 08:45:15;;;;;;;8.00;4.57;;;;;;;17.36;40.37;99532.81;4471814;32;34341;-81
2023/12/12 08:47:44;;;;;;;8.77;3.72;;;;;;;17.66;37.95;99541.34;4471252;32;34223;-80
2023/12/12 08:50:14;;;;;;;9.20;4.07;;;;;;;17.80;37.38;99535.41;4471776;32;34120;-79
2023/12/12 08:52:43;;;;;;;8.13;4.03;;;;;;;17.97;37.33;99532.78;4469760;32;34904;-79
2023/12/12 08:55:12;;;;;;;7.87;3.62;;;;;;;17.84;37.20;99533.25;4469811;32;33884;-78
2023/12/12 08:57:41;;;;;;;12.18;4.05;;;;;;;17.76;37.33;99528.69;4470063;32;34236;-79
2023/12/12 09:00:13;;;;;;;10.07;4.35;;;;;;;17.69;37.45;99536.50;4469714;32;33516;-78
2023/12/12 09:02:43;;;;;;;10.57;4.55;;;;;;;17.66;37.25;99536.00;4469830;32;34635;-79
2023/12/12 09:05:13;;;;;;;8.65;4.60;;;;;;;17.37;37.55;99533.66;4470094;32;34840;-78
2023/12/12 09:07:42;;;;;;;7.70;4.60;;;;;;;17.00;38.31;99528.56;4470112;32;33529;-79
2023/12/12 09:10:11;;;;;;;7.87;3.62;;;;;;;17.09;38.35;99528.47;4469799;32;33967;-79
2023/12/12 09:12:40;;;;;;;9.88;4.60;;;;;;;17.10;38.35;99527.44;4469879;32;35375;-79
2023/12/12 09:15:10;;;;;;;10.35;4.50;;;;;;;17.65;37.06;99534.28;4469578;32;34046;-78
2023/12/12 09:17:40;;;;;;;4.85;3.92;;;;;;;17.99;36.69;99531.62;4469628;32;33798;-78
2023/12/12 09:20:12;;;;;;;9.50;4.22;;;;;;;18.38;35.92;99517.62;4470021;32;34768;-78
2023/12/12 09:22:41;;;;;;;11.07;4.15;;;;;;;19.14;34.96;99516.47;4469620;32;34097;-80
2023/12/12 09:25:10;;;;;;;16.98;5.95;;;;;;;19.39;34.49;99517.25;4469317;32;35105;-78
2023/12/12 09:27:39;;;;;;;21.45;6.82;;;;;;;19.50;33.94;99516.03;4469521;32;33597;-78
2023/12/12 09:30:11;;;;;;;13.30;6.72;;;;;;;19.49;34.37;99512.53;4469594;32;34667;-78
2023/12/12 09:32:42;;;;;;;;;;;;;;;19.78;34.33;99520.00;4470062;32;34842;-78
2023/12/12 09:35:11;;;;;;;11.45;4.50;;;;;;;20.13;33.02;99520.50;4469632;32;34975;-79
2023/12/12 09:37:41;;;;;;;7.97;3.75;;;;;;;19.71;33.51;99518.19;4469656;32;33655;-79
2023/12/12 09:40:11;;;;;;;9.23;3.58;;;;;;;19.82;33.11;99509.72;4469433;32;34566;-79
2023/12/12 09:42:41;;;;;;;12.57;4.95;;;;;;;19.83;33.29;99512.22;4469540;32;34893;-79
2023/12/12 09:45:13;;;;;;;8.88;4.30;;;;;;;19.88;33.29;99509.88;4469092;32;34006;-79
2023/12/12 09:47:44;;;;;;;6.35;4.12;;;;;;;19.65;33.66;99509.81;4469199;32;33721;-79
2023/12/12 09:50:14;;;;;;;7.22;3.80;;;;;;;19.60;33.46;99503.25;4469239;32;34676;-79
2023/12/12 09:52:47;;;;;;;6.87;3.83;;;;;;;19.78;33.34;99503.03;4469152;32;34856;-79
2023/12/12 09:55:17;;;;;;;;;;;;;;;19.86;32.92;99490.37;4469390;32;34015;-79
2023/12/12 09:57:46;;;;;;;7.12;2.75;;;;;;;19.47;33.57;99503.78;4469294;32;33695;-79
2023/12/12 10:00:18;;;;;;;9.55;3.55;;;;;;;19.33;33.93;99509.88;4469117;32;33972;-78
2023/12/12 10:02:50;;;;;;;7.62;3.22;;;;;;;19.51;33.08;99506.97;4469148;32;34721;-78
2023/12/12 10:05:20;;;;;;;7.95;3.78;;;;;;;19.45;33.41;99497.75;4468962;32;34794;-78
2023/12/12 10:07:50;;;;;;;8.98;2.97;;;;;;;19.42;33.55;99490.03;4469355;32;34160;-78
2023/12/12 10:10:32;;;;;;;7.12;3.75;;;;;;;19.75;32.90;99498.84;4468972;32;34721;-78
2023/12/12 10:13:02;;;;;;;6.60;3.67;;;;;;;20.00;32.46;99491.50;4468855;32;34946;-79
2023/12/12 10:15:33;;;;;;;7.95;4.37;;;;;;;19.88;32.38;99499.13;4468630;32;34831;-78
2023/12/12 10:18:04;;;;;;;10.07;4.35;;;;;;;19.79;32.85;99491.25;4468912;32;33603;-79
2023/12/12 10:20:37;;;;;;;6.97;4.45;;;;;;;20.01;31.94;99487.78;4468769;32;34654;-78
2023/12/12 10:23:07;;;;;;;11.12;3.90;;;;;;;20.07;32.12;99488.91;4469188;32;34803;-78
2023/12/12 10:25:36;;;;;;;10.05;3.50;;;;;;;20.08;32.12;99487.94;4468760;32;34743;-78
2023/12/12 10:28:05;;;;;;;11.80;4.90;;;;;;;19.81;32.74;99482.00;4468798;32;34225;-78
2023/12/12 10:30:36;;;;;;;10.43;5.65;;;;;;;19.47;33.58;99481.47;4468728;32;33945;-78
2023/12/12 10:33:11;;;;;;;11.32;4.47;;;;;;;19.60;33.13;99473.69;4468579;32;34865;-78
2023/12/12 10:35:45;;;;;;;10.20;3.97;;;;;;;19.76;33.13;99481.72;4468513;32;33880;-78
2023/12/12 10:38:14;;;;;;;11.70;5.12;;;;;;;19.83;33.15;99488.03;4468960;32;33397;-78
2023/12/12 10:40:44;;;;;;;7.22;3.70;;;;;;;19.37;33.50;99498.63;4468517;32;33897;-79
2023/12/12 10:43:13;;;;;;;7.37;4.00;;;;;;;19.46;33.40;99502.12;4468529;32;33876;-78
2023/12/12 10:45:43;;;;;;;10.50;3.58;;;;;;;19.94;32.92;99499.44;4468371;32;34565;-78
2023/12/12 10:48:21;;;;;;;8.10;3.47;;;;;;;19.86;32.93;99495.75;4468527;32;34046;-79
2023/12/12 10:50:54;;;;;;;9.60;4.00;;;;;;;20.07;32.35;99500.50;4468434;32;34225;-79
2023/12/12 10:53:25;;;;;;;7.97;3.80;;;;;;;19.73;33.02;99502.72;4468536;32;34487;-78
2023/12/12 10:55:57;;;;;;;8.87;4.30;;;;;;;19.75;32.67;99504.22;4471221;32;34104;-78
2023/12/12 10:58:26;;;;;;;8.07;3.90;;;;;;;19.58;33.25;99495.34;4470821;32;33556;-78
2023/12/12 11:00:59;;;;;;;7.93;3.70;;;;;;;19.61;33.28;99505.78;4470693;32;34737;-78
2023/12/12 11:03:31;;;;;;;7.80;3.90;;;;;;;19.63;32.52;99503.75;4470588;32;33944;-78
2023/12/12 11:06:02;;;;;;;9.13;4.90;;;;;;;19.66;32.64;99502.56;4470537;32;34639;-78
2023/12/12 11:08:31;;;;;;;9.57;3.92;;;;;;;19.62;32.55;99496.72;4470707;32;33459;-78
2023/12/12 11:11:03;;;;;;;7.20;3.40;;;;;;;19.54;32.99;99493.19;4470978;32;33970;-78
2023/12/12 11:13:38;;;;;;;8.15;4.40;;;;;;;19.53;32.97;99488.84;4470572;32;34105;-78
2023/12/12 11:16:09;;;;;;;7.20;4.25;;;;;;;19.54;32.92;99491.34;4470357;32;34251;-79
2023/12/12 11:18:44;;;;;;;7.83;4.43;;;;;;;19.58;33.16;99489.97;4470868;32;34238;-78
2023/12/12 11:21:52;;;;;;;6.28;3.08;;;;;;;19.66;33.03;99489.13;4470555;32;33967;-78
2023/12/12 11:24:22;;;;;;;9.43;3.53;;;;;;;19.60;33.41;99497.87;4459279;32;33944;-78
2023/12/12 11:26:55;;;;;;;9.57;3.67;;;;;;;19.45;33.09;99495.06;4470619;32;33770;-78
2023/12/12 11:29:25;;;;;;;11.63;4.43;;;;;;;19.45;33.32;99486.19;4470523;32;33444;-78
2023/12/12 11:32:01;;;;;;;6.93;3.35;;;;;;;19.73;33.68;99495.50;4470791;32;34941;-78
2023/12/12 11:34:42;;;;;;;4.40;2.87;;;;;;;19.49;33.34;99490.19;4470300;32;33956;-78
2023/12/12 11:37:14;;;;;;;7.72;3.53;;;;;;;19.24;33.40;99490.25;4470335;32;33951;-78
2023/12/12 11:39:49;;;;;;;6.70;3.60;;;;;;;19.10;33.75;99490.97;4470412;32;33455;-78